Time;durP1;ratioP1;P1;durP2;ratioP2;P2;SDS_P1;SDS_P2;PMS_P1;PMS_P2;Temp;Humidity;BMP_temperature;BMP_pressure;BME280_temperature;BME280_humidity;BME280_pressure;Samples;Min_cycle;Max_cycle;Signal;HPM_P1;HPM_P2
2022/09/10 00:00:45;;;;;;;1.73;1.15;;;;;;;22.67;50.51;100823.31;5030692;28;20033;-46
2022/09/10 00:03:10;;;;;;;0.73;0.40;;;;;;;22.68;50.47;100824.97;5044281;28;20040;-48
2022/09/10 00:05:41;;;;;;;0.50;0.40;;;;;;;22.66;50.37;100822.47;5028644;28;20096;-46
2022/09/10 00:08:07;;;;;;;0.68;0.45;;;;;;;22.66;50.22;100832.47;5044181;28;20030;-44
2022/09/10 00:10:40;;;;;;;0.93;0.40;;;;;;;22.66;50.51;100833.31;5044393;28;20156;-45
2022/09/10 00:13:06;;;;;;;0.60;0.50;;;;;;;22.64;50.41;100829.97;5044066;28;20033;-46
2022/09/10 00:15:36;;;;;;;0.52;0.40;;;;;;;22.64;50.58;100832.69;5043897;28;20021;-46
2022/09/10 00:18:01;;;;;;;0.50;0.50;;;;;;;22.64;50.43;100829.09;5030241;28;20037;-46
2022/09/10 00:20:27;;;;;;;1.17;0.50;;;;;;;22.63;50.37;100827.44;5040494;28;20032;-45
2022/09/10 00:22:53;;;;;;;0.70;0.45;;;;;;;22.62;50.25;100828.47;5035365;28;20024;-46
2022/09/10 00:25:18;;;;;;;0.65;0.50;;;;;;;22.62;50.18;100828.47;5036855;28;20837;-46
2022/09/10 00:27:43;;;;;;;0.52;0.40;;;;;;;22.61;50.58;100824.94;5037023;28;20025;-47
2022/09/10 00:30:10;;;;;;;0.40;0.40;;;;;;;22.58;50.19;100817.19;5029857;28;20461;-47
2022/09/10 00:32:37;;;;;;;0.80;0.40;;;;;;;22.60;50.52;100822.41;5015192;28;20134;-47
2022/09/10 00:35:03;;;;;;;0.93;0.40;;;;;;;22.56;50.48;100823.84;5037208;28;20022;-46
2022/09/10 00:37:29;;;;;;;0.82;0.65;;;;;;;22.55;50.42;100825.69;5015154;28;20046;-49
2022/09/10 00:39:55;;;;;;;0.68;0.50;;;;;;;22.59;50.39;100831.56;5057494;28;20029;-47
2022/09/10 00:42:20;;;;;;;0.75;0.40;;;;;;;22.57;50.16;100826.34;5036604;28;20022;-46
2022/09/10 00:44:45;;;;;;;2.28;0.52;;;;;;;22.57;50.38;100826.34;5038982;28;20049;-47
2022/09/10 00:47:22;;;;;;;0.57;0.50;;;;;;;22.58;50.40;100827.19;5038519;28;20026;-46
2022/09/10 00:49:50;;;;;;;0.50;0.50;;;;;;;22.57;50.34;100820.94;5035716;28;20091;-48
2022/09/10 00:52:16;;;;;;;;;;;;;;;22.54;50.41;100826.72;5029917;28;20029;-49
2022/09/10 00:54:42;;;;;;;0.40;0.40;;;;;;;22.54;50.36;100820.47;5042938;28;19944;-46
2022/09/10 00:57:13;;;;;;;0.77;0.55;;;;;;;22.55;50.45;100827.56;5057549;28;20028;-48
2022/09/10 00:59:41;;;;;;;0.77;0.40;;;;;;;22.52;50.33;100817.97;5016154;28;20044;-47
2022/09/10 01:02:07;;;;;;;1.00;0.43;;;;;;;22.52;50.52;100817.97;5037309;28;20029;-45
2022/09/10 01:04:32;;;;;;;0.68;0.40;;;;;;;22.54;50.52;100820.47;5031645;28;20044;-46
2022/09/10 01:06:59;;;;;;;0.73;0.43;;;;;;;22.40;50.23;100798.69;5051503;28;20025;-49
2022/09/10 01:09:25;;;;;;;0.40;0.30;;;;;;;22.54;50.46;100823.19;5056130;28;20040;-51
2022/09/10 01:12:06;;;;;;;0.90;0.60;;;;;;;22.54;50.30;100821.31;5025094;28;20560;-44
2022/09/10 01:14:50;;;;;;;0.57;0.40;;;;;;;22.53;50.34;100816.09;5042146;28;20541;-46
2022/09/10 01:17:31;;;;;;;0.77;0.50;;;;;;;22.53;50.34;100824.22;5027599;28;20057;-49
2022/09/10 01:20:00;;;;;;;0.55;0.43;;;;;;;22.52;50.46;100817.13;5021822;28;20080;-45
2022/09/10 01:23:03;;;;;;;1.27;0.47;;;;;;;22.52;50.34;100815.25;5034550;28;20033;-45
2022/09/10 01:25:36;;;;;;;1.05;0.65;;;;;;;22.51;50.18;100823.56;5046867;28;20093;-46
2022/09/10 01:28:06;;;;;;;1.35;0.70;;;;;;;22.45;50.40;100811.66;5018301;28;20022;-45
2022/09/10 01:30:40;;;;;;;0.45;0.45;;;;;;;22.51;50.31;100823.56;5009298;28;20021;-44
2022/09/10 01:33:23;;;;;;;0.90;0.68;;;;;;;22.49;50.35;100826.47;5020386;28;20022;-46
2022/09/10 01:35:55;;;;;;;0.80;0.52;;;;;;;22.49;50.60;100826.47;5028610;28;20063;-45
2022/09/10 01:38:26;;;;;;;1.27;0.60;;;;;;;22.49;50.12;100826.47;5016948;28;20072;-46
2022/09/10 01:40:52;;;;;;;1.38;0.65;;;;;;;22.49;50.50;100834.63;5046540;28;20036;-46
2022/09/10 01:43:18;;;;;;;0.90;0.55;;;;;;;22.48;50.18;100834.81;5062168;28;20036;-47
2022/09/10 01:46:18;;;;;;;1.00;0.47;;;;;;;22.49;50.26;100836.50;5043547;28;20056;-47
2022/09/10 01:48:54;;;;;;;1.48;0.50;;;;;;;22.47;50.42;100836.66;5052438;28;20025;-46
2022/09/10 01:51:28;;;;;;;1.08;0.52;;;;;;;22.48;50.34;100842.94;5040832;28;20033;-50
2022/09/10 01:54:15;;;;;;;1.20;0.68;;;;;;;22.46;50.35;100838.53;5042989;28;20116;-48
2022/09/10 01:56:52;;;;;;;0.80;0.57;;;;;;;22.46;50.60;100837.69;5035022;28;20025;-45
2022/09/10 01:59:26;;;;;;;0.77;0.55;;;;;;;22.46;50.33;100840.41;5014956;28;20426;-49
2022/09/10 02:01:58;;;;;;;0.80;0.52;;;;;;;22.45;50.38;100842.28;5037425;28;20113;-46
2022/09/10 02:04:24;;;;;;;0.55;0.50;;;;;;;22.45;50.53;100836.03;5022449;28;20029;-52
2022/09/10 02:06:50;;;;;;;1.77;0.70;;;;;;;22.45;50.58;100836.03;5034650;28;20060;-54
2022/09/10 02:09:17;;;;;;;1.08;0.60;;;;;;;22.41;50.40;100832.03;5021222;28;20599;-46
2022/09/10 02:11:48;;;;;;;0.55;0.55;;;;;;;22.44;50.23;100832.50;5009090;28;20025;-46
2022/09/10 02:14:14;;;;;;;0.80;0.50;;;;;;;22.41;50.44;100837.44;5039048;28;20027;-46
2022/09/10 02:16:43;;;;;;;1.13;0.60;;;;;;;22.44;50.43;100839.78;5040456;28;20107;-47
2022/09/10 02:19:10;;;;;;;1.15;0.55;;;;;;;22.43;50.40;100833.53;5009256;28;20044;-47
2022/09/10 02:21:36;;;;;;;0.50;0.50;;;;;;;22.43;50.46;100835.41;5040555;28;20104;-45
2022/09/10 02:24:05;;;;;;;0.70;0.50;;;;;;;22.42;50.50;100836.41;5025961;28;20038;-51
2022/09/10 02:26:32;;;;;;;0.40;0.40;;;;;;;22.43;50.40;100843.53;5031899;28;20593;-50
2022/09/10 02:28:58;;;;;;;0.80;0.70;;;;;;;22.42;50.36;100842.66;5039095;28;20109;-49
2022/09/10 02:31:24;;;;;;;0.65;0.50;;;;;;;22.36;50.33;100834.50;5021284;28;20081;-50
2022/09/10 02:33:50;;;;;;;0.73;0.47;;;;;;;22.41;50.31;100837.44;5031612;28;20021;-46
2022/09/10 02:36:15;;;;;;;1.58;0.70;;;;;;;22.42;50.12;100842.66;5034604;28;20117;-50
2022/09/10 02:38:40;;;;;;;1.00;0.65;;;;;;;22.41;50.49;100843.69;5039848;28;20107;-51
2022/09/10 02:41:08;;;;;;;1.60;1.00;;;;;;;22.41;50.48;100848.28;5035158;28;20593;-52
2022/09/10 02:43:37;;;;;;;0.77;0.50;;;;;;;22.41;50.32;100848.28;5036128;28;20033;-48
2022/09/10 02:46:04;;;;;;;0.98;0.70;;;;;;;22.40;50.43;100836.63;5052964;28;20051;-48
2022/09/10 02:48:30;;;;;;;1.20;0.80;;;;;;;22.40;50.48;100841.19;5037692;28;20033;-48
2022/09/10 02:50:56;;;;;;;1.10;0.73;;;;;;;22.39;50.55;100834.09;5037650;28;20070;-52
2022/09/10 02:53:21;;;;;;;1.27;0.75;;;;;;;22.33;50.36;100833.00;5050150;28;20056;-47
2022/09/10 02:55:47;;;;;;;1.15;0.75;;;;;;;22.37;50.34;100839.69;5059347;28;20081;-48
2022/09/10 02:58:14;;;;;;;0.80;0.70;;;;;;;22.39;50.33;100850.38;5045784;28;20017;-48
2022/09/10 03:00:39;;;;;;;0.80;0.70;;;;;;;22.38;50.35;100852.22;5046812;28;20061;-48
2022/09/10 03:03:05;;;;;;;1.10;0.90;;;;;;;22.37;50.44;100850.53;5065571;28;20029;-48
2022/09/10 03:05:31;;;;;;;1.15;0.75;;;;;;;22.37;50.40;100850.53;5064542;28;20080;-46
2022/09/10 03:07:56;;;;;;;1.10;0.75;;;;;;;22.36;50.44;100846.16;5031235;28;20025;-48
2022/09/10 03:10:23;;;;;;;0.85;0.80;;;;;;;22.33;50.49;100849.25;5045533;28;20025;-50
2022/09/10 03:12:48;;;;;;;0.50;0.50;;;;;;;22.36;50.44;100851.56;5031172;28;20801;-50
2022/09/10 03:15:13;;;;;;;1.25;0.88;;;;;;;22.36;50.50;100851.56;5035042;28;20045;-51
2022/09/10 03:17:39;;;;;;;1.17;1.00;;;;;;;22.30;50.30;100837.94;5039292;28;20029;-47
2022/09/10 03:20:05;;;;;;;1.45;0.70;;;;;;;22.33;50.48;100840.28;5037149;28;20040;-49
2022/09/10 03:22:31;;;;;;;1.25;0.88;;;;;;;22.37;50.55;100844.28;5042768;28;20026;-46
2022/09/10 03:24:57;;;;;;;0.85;0.80;;;;;;;22.34;50.00;100848.19;5042508;28;20096;-47
2022/09/10 03:27:24;;;;;;;1.25;0.73;;;;;;;22.34;50.45;100850.06;5033079;28;20035;-49
2022/09/10 03:29:49;;;;;;;1.15;0.85;;;;;;;22.33;50.28;100848.41;5030794;28;20029;-50
2022/09/10 03:32:14;;;;;;;0.57;0.57;;;;;;;22.35;50.42;100849.06;5038581;28;20389;-50
2022/09/10 03:34:40;;;;;;;1.10;1.00;;;;;;;22.33;50.32;100846.53;5036301;28;20025;-50
2022/09/10 03:37:05;;;;;;;1.73;1.05;;;;;;;22.33;50.15;100845.69;5039883;28;20038;-49
2022/09/10 03:39:30;;;;;;;1.17;0.90;;;;;;;22.32;50.17;100841.31;5044436;28;20014;-45
2022/09/10 03:41:57;;;;;;;0.93;0.70;;;;;;;22.32;50.28;100836.75;5032750;28;20022;-44
2022/09/10 03:44:22;;;;;;;1.83;0.95;;;;;;;22.32;50.58;100836.75;5051965;28;20021;-47
2022/09/10 03:46:49;;;;;;;0.95;0.85;;;;;;;22.31;50.49;100832.34;5044489;28;20041;-46
2022/09/10 03:49:15;;;;;;;1.55;0.90;;;;;;;22.31;50.25;100834.22;5030363;28;20122;-46
2022/09/10 03:51:40;;;;;;;1.02;0.80;;;;;;;22.32;50.38;100838.63;5032637;28;20042;-48
2022/09/10 03:54:05;;;;;;;1.33;0.88;;;;;;;22.30;49.92;100832.53;5038294;28;20033;-47
2022/09/10 03:56:31;;;;;;;1.48;0.88;;;;;;;22.31;50.48;100845.91;5034199;28;20032;-45
2022/09/10 03:58:56;;;;;;;1.00;0.90;;;;;;;22.30;50.47;100843.38;5030554;28;20113;-49
2022/09/10 04:01:21;;;;;;;1.38;1.00;;;;;;;22.28;50.45;100831.91;5043864;28;20021;-47
2022/09/10 04:03:47;;;;;;;1.63;1.00;;;;;;;22.28;50.42;100832.75;5043853;28;20036;-46
2022/09/10 04:06:13;;;;;;;1.33;1.08;;;;;;;22.29;50.18;100833.56;5057423;28;20029;-47
2022/09/10 04:08:39;;;;;;;1.75;0.60;;;;;;;22.28;50.29;100824.59;5055531;28;20031;-44
2022/09/10 04:11:05;;;;;;;1.00;0.80;;;;;;;22.28;50.39;100827.31;5042733;28;20607;-46
2022/09/10 04:13:30;;;;;;;1.10;0.98;;;;;;;22.26;50.40;100831.25;5043703;28;20036;-47
2022/09/10 04:15:56;;;;;;;0.73;0.73;;;;;;;22.25;50.10;100830.41;5049692;28;20250;-48
2022/09/10 04:18:22;;;;;;;1.00;0.90;;;;;;;22.27;50.32;100836.47;5056347;28;20085;-50
2022/09/10 04:20:48;;;;;;;2.42;1.05;;;;;;;22.26;50.36;100837.53;5038567;28;20035;-46
2022/09/10 04:23:15;;;;;;;1.02;0.90;;;;;;;22.27;50.47;100841.06;5041948;28;20106;-45
2022/09/10 04:25:40;;;;;;;1.00;0.90;;;;;;;22.18;50.68;100834.94;5031758;28;20029;-47
2022/09/10 04:28:05;;;;;;;1.00;0.90;;;;;;;22.26;50.65;100836.66;5030234;28;20038;-46
2022/09/10 04:30:31;;;;;;;1.45;1.00;;;;;;;22.24;50.37;100842.28;5043478;28;20018;-46
2022/09/10 04:32:56;;;;;;;1.55;1.13;;;;;;;22.25;50.21;100849.38;5043871;28;20112;-46
2022/09/10 04:35:21;;;;;;;1.63;1.00;;;;;;;22.25;50.40;100846.66;5029053;28;20025;-48
2022/09/10 04:37:47;;;;;;;1.33;0.90;;;;;;;22.25;50.60;100848.53;5043449;28;20037;-47
2022/09/10 04:40:12;;;;;;;2.05;1.15;;;;;;;22.25;50.48;100848.53;5029267;28;20057;-45
2022/09/10 04:42:37;;;;;;;1.00;0.90;;;;;;;22.24;50.47;100844.97;5036099;28;20026;-48
2022/09/10 04:45:03;;;;;;;1.00;0.90;;;;;;;22.24;50.39;100854.97;5041469;28;20032;-45
2022/09/10 04:47:28;;;;;;;1.50;0.82;;;;;;;22.22;50.45;100852.47;5037869;28;20029;-47
2022/09/10 04:49:54;;;;;;;1.55;1.10;;;;;;;22.23;50.55;100854.16;5034653;28;20036;-50
2022/09/10 04:52:21;;;;;;;1.20;0.98;;;;;;;22.22;50.52;100852.47;5029876;28;20017;-46
2022/09/10 04:54:47;;;;;;;1.05;0.95;;;;;;;22.21;50.56;100851.63;5033428;28;20048;-48
2022/09/10 04:57:12;;;;;;;1.20;1.05;;;;;;;22.23;50.52;100858.72;5037589;28;20021;-46
2022/09/10 04:59:37;;;;;;;1.20;1.10;;;;;;;22.21;50.42;100848.91;5031158;28;20043;-46
2022/09/10 05:02:03;;;;;;;1.10;1.00;;;;;;;22.22;50.27;100855.19;5029808;28;20502;-48
2022/09/10 05:04:28;;;;;;;1.17;1.00;;;;;;;22.20;50.42;100852.66;5018774;28;20474;-48
2022/09/10 05:06:53;;;;;;;1.80;0.90;;;;;;;22.20;50.69;100849.94;5032290;28;20457;-49
2022/09/10 05:09:19;;;;;;;1.20;1.10;;;;;;;22.17;50.60;100846.78;5042316;28;20028;-46
2022/09/10 05:11:48;;;;;;;1.10;1.00;;;;;;;22.20;50.76;100857.22;5043295;28;20040;-47
2022/09/10 05:14:14;;;;;;;1.13;0.95;;;;;;;22.18;50.61;100843.91;5027648;28;20026;-49
2022/09/10 05:16:39;;;;;;;1.38;0.90;;;;;;;22.18;50.23;100848.47;5062833;28;20031;-48
2022/09/10 05:19:05;;;;;;;1.20;1.00;;;;;;;22.19;50.50;100850.16;5061783;28;20028;-47
2022/09/10 05:21:31;;;;;;;1.95;1.00;;;;;;;22.20;50.33;100854.53;5044851;28;20025;-46
2022/09/10 05:23:56;;;;;;;1.23;0.90;;;;;;;22.17;50.54;100844.94;5055077;28;20025;-50
2022/09/10 05:26:22;;;;;;;2.15;1.30;;;;;;;22.18;50.48;100854.72;5042797;28;20080;-46
2022/09/10 05:28:48;;;;;;;1.45;1.20;;;;;;;22.16;50.40;100845.09;5057139;28;20033;-48
2022/09/10 05:31:13;;;;;;;2.20;1.25;;;;;;;22.19;50.53;100844.72;5042484;28;20033;-47
2022/09/10 05:33:39;;;;;;;1.63;1.00;;;;;;;22.19;50.47;100850.16;5042555;28;20013;-51
2022/09/10 05:36:07;;;;;;;1.52;1.08;;;;;;;22.19;50.53;100858.28;5036330;28;20049;-47
2022/09/10 05:38:33;;;;;;;1.27;0.90;;;;;;;22.19;50.72;100855.56;5040659;28;20025;-50
2022/09/10 05:40:59;;;;;;;1.95;1.02;;;;;;;22.18;50.28;100856.59;5031074;28;20029;-46
2022/09/10 05:43:26;;;;;;;1.17;1.08;;;;;;;22.17;50.58;100855.75;5033351;28;20061;-49
2022/09/10 05:45:51;;;;;;;1.70;1.10;;;;;;;22.17;50.29;100855.75;5042471;28;20049;-50
2022/09/10 05:48:17;;;;;;;1.20;0.90;;;;;;;22.12;50.34;100851.91;5030900;28;20806;-47
2022/09/10 05:50:44;;;;;;;1.75;1.17;;;;;;;22.17;50.38;100855.75;5036516;28;20029;-45
2022/09/10 05:53:09;;;;;;;1.52;1.10;;;;;;;22.17;50.63;100857.59;5035976;28;20026;-45
2022/09/10 05:55:34;;;;;;;1.08;0.90;;;;;;;22.17;50.38;100854.91;5032494;28;20042;-47
2022/09/10 05:58:00;;;;;;;1.73;1.27;;;;;;;22.15;50.78;100860.50;5038428;28;20044;-48
2022/09/10 06:00:25;;;;;;;2.05;1.00;;;;;;;22.17;50.55;100863.03;5040360;28;20037;-49
2022/09/10 06:02:51;;;;;;;1.10;0.95;;;;;;;22.17;50.60;100871.16;5032557;28;20029;-47
2022/09/10 06:05:18;;;;;;;1.83;1.33;;;;;;;22.16;50.72;100872.19;5033682;28;20030;-48
2022/09/10 06:07:43;;;;;;;1.20;1.10;;;;;;;22.16;50.44;100873.00;5044326;28;20128;-49
2022/09/10 06:10:09;;;;;;;1.20;1.05;;;;;;;22.16;50.46;100874.88;5046021;28;20025;-50
2022/09/10 06:12:34;;;;;;;1.20;1.02;;;;;;;22.16;50.39;100872.19;5032092;28;20029;-46
2022/09/10 06:15:00;;;;;;;1.02;0.90;;;;;;;22.14;50.39;100864.25;5038067;28;20026;-45
2022/09/10 06:17:25;;;;;;;1.20;1.02;;;;;;;22.16;50.58;100870.31;5039982;28;20029;-46
2022/09/10 06:19:50;;;;;;;1.27;1.10;;;;;;;22.15;50.54;100867.81;5036571;28;20021;-47
2022/09/10 06:22:16;;;;;;;2.55;1.23;;;;;;;22.14;50.38;100872.38;5046028;28;20773;-47
2022/09/10 06:24:41;;;;;;;1.17;1.08;;;;;;;22.14;50.76;100874.25;5045561;28;20029;-47
2022/09/10 06:27:07;;;;;;;1.23;1.10;;;;;;;22.14;50.71;100872.38;5045536;28;20022;-47
2022/09/10 06:29:34;;;;;;;1.23;1.13;;;;;;;22.14;50.52;100864.25;5045882;28;20021;-47
2022/09/10 06:32:00;;;;;;;1.25;1.10;;;;;;;22.12;50.33;100873.56;5049533;28;20539;-48
2022/09/10 06:34:25;;;;;;;1.20;0.77;;;;;;;22.14;50.33;100877.81;5065219;28;20028;-51
2022/09/10 06:36:51;;;;;;;1.60;1.00;;;;;;;22.15;50.49;100873.22;5063572;28;20063;-49
2022/09/10 06:39:16;;;;;;;1.17;0.80;;;;;;;22.15;50.66;100875.94;5037516;28;20038;-46
2022/09/10 06:41:42;;;;;;;1.25;1.00;;;;;;;22.15;50.59;100879.47;5039622;28;20622;-51
2022/09/10 06:44:08;;;;;;;1.00;0.80;;;;;;;22.15;50.53;100878.63;5045043;28;20786;-48
2022/09/10 06:46:34;;;;;;;1.25;1.00;;;;;;;22.16;50.56;100891.13;5045361;28;20021;-45
2022/09/10 06:49:02;;;;;;;0.98;0.88;;;;;;;22.16;50.89;100874.88;5031127;28;20029;-47
2022/09/10 06:51:28;;;;;;;1.33;0.93;;;;;;;22.16;50.67;100886.56;5035305;28;20522;-48
2022/09/10 06:53:54;;;;;;;1.00;0.90;;;;;;;22.16;50.67;100883.84;5039177;28;20064;-47
2022/09/10 06:56:19;;;;;;;1.27;1.10;;;;;;;22.16;50.76;100883.84;5033733;28;20030;-48
2022/09/10 06:58:45;;;;;;;1.63;1.00;;;;;;;22.17;50.62;100888.25;5031570;28;20026;-48
2022/09/10 07:01:16;;;;;;;1.45;1.27;;;;;;;22.19;50.75;100888.06;5038484;28;20068;-48
2022/09/10 07:03:42;;;;;;;1.08;0.70;;;;;;;22.19;50.40;100886.19;5037654;28;20021;-46
2022/09/10 07:06:10;;;;;;;1.23;0.90;;;;;;;22.20;50.65;100885.16;5030942;28;20492;-46
2022/09/10 07:08:36;;;;;;;1.15;1.05;;;;;;;22.21;50.44;100888.69;5044458;28;20030;-50
2022/09/10 07:11:03;;;;;;;1.65;1.10;;;;;;;22.22;50.43;100884.97;5013617;28;20028;-47
2022/09/10 07:13:29;;;;;;;1.15;0.98;;;;;;;22.21;50.53;100894.94;5035564;28;20394;-43
2022/09/10 07:15:55;;;;;;;1.00;0.90;;;;;;;22.21;50.61;100888.69;5040255;28;20036;-46
2022/09/10 07:18:20;;;;;;;1.27;1.17;;;;;;;22.23;50.54;100894.78;5041193;28;20782;-48
2022/09/10 07:20:46;;;;;;;1.23;0.90;;;;;;;22.24;50.75;100896.44;5039310;28;20021;-47
2022/09/10 07:23:13;;;;;;;1.33;1.05;;;;;;;22.27;50.61;100898.78;5030564;28;20463;-47
2022/09/10 07:25:39;;;;;;;1.25;0.90;;;;;;;22.27;50.49;100901.50;5044729;28;20021;-48
2022/09/10 07:28:05;;;;;;;1.85;1.10;;;;;;;22.32;50.42;100901.75;5058737;28;20048;-49
2022/09/10 07:30:31;;;;;;;0.90;0.80;;;;;;;22.33;50.43;100905.28;5058664;28;20081;-48
2022/09/10 07:32:56;;;;;;;1.17;0.90;;;;;;;22.36;50.00;100908.47;5032969;28;20543;-48
2022/09/10 07:35:21;;;;;;;1.63;1.00;;;;;;;22.40;50.31;100906.22;5038007;28;20022;-46
2022/09/10 07:37:47;;;;;;;1.33;1.20;;;;;;;22.42;50.25;100902.25;5034195;28;20391;-45
2022/09/10 07:40:12;;;;;;;1.27;1.02;;;;;;;22.46;50.31;100908.97;5043574;28;20064;-47
2022/09/10 07:42:37;;;;;;;1.20;0.82;;;;;;;22.49;50.08;100910.47;5052168;28;20051;-50
2022/09/10 07:45:04;;;;;;;1.17;0.98;;;;;;;22.51;49.97;100902.13;5042589;28;20436;-46
2022/09/10 07:47:30;;;;;;;1.15;0.95;;;;;;;22.52;50.04;100901.13;5064095;28;20020;-45
2022/09/10 07:49:55;;;;;;;1.67;0.90;;;;;;;22.52;50.22;100899.25;5052061;28;20737;-50
2022/09/10 07:52:21;;;;;;;2.00;1.00;;;;;;;22.52;49.83;100898.44;5044490;28;20032;-46
2022/09/10 07:54:46;;;;;;;1.38;0.98;;;;;;;22.54;49.99;100899.06;5053385;28;20028;-49
2022/09/10 07:57:11;;;;;;;1.10;0.85;;;;;;;22.55;49.89;100906.16;5048732;28;20085;-46
2022/09/10 07:59:36;;;;;;;1.55;0.90;;;;;;;22.52;49.86;100895.72;5044060;28;20018;-46
2022/09/10 08:02:02;;;;;;;1.35;0.93;;;;;;;22.58;50.01;100914.72;5043984;28;20525;-47
2022/09/10 08:04:30;;;;;;;1.08;0.77;;;;;;;22.56;49.95;100899.72;5029537;28;20076;-47
2022/09/10 08:06:56;;;;;;;1.70;1.20;;;;;;;22.60;49.63;100906.41;5032763;28;20022;-48
2022/09/10 08:09:21;;;;;;;1.08;0.90;;;;;;;22.61;49.85;100913.53;5041383;28;20083;-50
2022/09/10 08:11:46;;;;;;;1.42;1.33;;;;;;;22.59;49.74;100919.13;5034523;28;20030;-48
2022/09/10 08:14:12;;;;;;;0.98;0.70;;;;;;;22.57;50.10;100929.31;5037011;28;20032;-48
2022/09/10 08:16:37;;;;;;;1.38;0.65;;;;;;;22.54;50.13;100929.69;5031175;28;20021;-47
2022/09/10 08:19:03;;;;;;;0.98;0.80;;;;;;;22.54;50.01;100927.00;5042688;28;20048;-47
2022/09/10 08:21:31;;;;;;;1.40;0.82;;;;;;;22.50;49.90;100931.13;5038192;28;20059;-48
2022/09/10 08:23:56;;;;;;;1.38;1.02;;;;;;;22.49;50.27;100939.44;5031054;28;20056;-46
2022/09/10 08:26:23;;;;;;;1.15;0.90;;;;;;;22.47;50.09;100939.63;5029924;28;20033;-45
2022/09/10 08:28:49;;;;;;;1.35;0.88;;;;;;;22.46;50.41;100946.91;5037750;28;20491;-48
2022/09/10 08:31:15;;;;;;;1.73;0.93;;;;;;;22.47;49.99;100945.03;5035165;28;20216;-48
2022/09/10 08:33:41;;;;;;;1.10;0.80;;;;;;;22.49;50.14;100953.00;5029291;28;20033;-49
2022/09/10 08:36:10;;;;;;;1.48;0.85;;;;;;;22.50;50.40;100947.38;5015748;28;20040;-47
2022/09/10 08:38:39;;;;;;;0.70;0.70;;;;;;;22.50;50.18;100950.06;5039332;28;20037;-47
2022/09/10 08:41:27;;;;;;;1.15;0.75;;;;;;;22.51;50.16;100942.78;5034736;28;20506;-46
2022/09/10 08:44:04;;;;;;;0.75;0.60;;;;;;;22.49;50.09;100950.28;5023528;28;20029;-48
2022/09/10 08:46:33;;;;;;;2.25;1.15;;;;;;;22.48;50.31;100949.44;5031937;28;20025;-49
2022/09/10 08:49:19;;;;;;;1.35;1.17;;;;;;;22.47;50.36;100953.16;5023353;28;20026;-49
2022/09/10 08:51:55;;;;;;;1.23;0.80;;;;;;;22.45;50.42;100960.66;5043603;28;20080;-48
2022/09/10 08:54:24;;;;;;;1.55;0.90;;;;;;;22.44;50.30;100958.97;5029023;28;20097;-48
2022/09/10 08:56:52;;;;;;;0.90;0.73;;;;;;;22.43;50.37;100957.31;5037652;28;20107;-47
2022/09/10 08:59:21;;;;;;;0.82;0.70;;;;;;;22.43;50.43;100965.44;5026926;28;20052;-48
2022/09/10 09:01:58;;;;;;;0.80;0.70;;;;;;;22.43;50.40;100957.31;5042984;28;20030;-47
2022/09/10 09:04:35;;;;;;;0.63;0.63;;;;;;;22.44;50.40;100967.13;5042684;28;20021;-48
2022/09/10 09:07:03;;;;;;;0.70;0.70;;;;;;;22.44;50.54;100958.97;5037614;28;20028;-48
2022/09/10 09:09:28;;;;;;;1.47;0.97;;;;;;;22.43;50.65;100963.56;5061109;28;20134;-50
2022/09/10 09:12:06;;;;;;;1.20;0.80;;;;;;;22.45;50.63;100964.19;5052716;28;20030;-46
2022/09/10 09:14:38;;;;;;;1.05;0.68;;;;;;;22.46;50.56;100968.59;5028986;28;20021;-48
2022/09/10 09:17:22;;;;;;;1.45;0.52;;;;;;;22.48;50.56;100970.28;5031975;28;20077;-45
2022/09/10 09:19:56;;;;;;;1.10;0.60;;;;;;;22.49;50.67;100975.50;5031839;28;20060;-49
2022/09/10 09:22:39;;;;;;;1.27;0.88;;;;;;;22.50;50.28;100974.47;5032155;28;20051;-48
2022/09/10 09:25:22;;;;;;;0.82;0.77;;;;;;;22.51;50.48;100978.84;5028603;28;20014;-48
2022/09/10 09:27:53;;;;;;;1.58;0.75;;;;;;;22.53;50.40;100975.97;5018004;28;20026;-47
2022/09/10 09:30:21;;;;;;;1.48;0.70;;;;;;;22.49;50.54;100977.38;5023341;28;20156;-46
2022/09/10 09:32:47;;;;;;;;;;;;;;;22.52;50.55;100988.69;5038005;28;20017;-47
2022/09/10 09:35:23;;;;;;;1.40;1.27;;;;;;;22.54;50.28;100985.75;5011541;28;19909;-49
2022/09/10 09:37:55;;;;;;;0.60;0.50;;;;;;;22.54;50.27;100983.88;5028049;28;20165;-49
2022/09/10 09:40:29;;;;;;;0.85;0.60;;;;;;;22.54;50.68;100986.59;5044939;28;20037;-49
2022/09/10 09:42:58;;;;;;;1.38;1.10;;;;;;;22.55;50.58;100990.16;5029321;28;20026;-50
2022/09/10 09:45:33;;;;;;;0.80;0.65;;;;;;;22.55;50.46;100990.16;5028809;28;20021;-47
2022/09/10 09:47:59;;;;;;;1.08;0.60;;;;;;;22.53;50.50;100997.63;5028791;28;20040;-48
2022/09/10 09:50:24;;;;;;;0.65;0.60;;;;;;;22.50;50.36;100998.84;5032380;28;20025;-47
2022/09/10 09:52:53;;;;;;;0.80;0.50;;;;;;;22.50;50.36;101001.56;5039322;28;20025;-48
2022/09/10 09:55:22;;;;;;;0.65;0.60;;;;;;;22.50;50.63;100996.13;5040061;28;20028;-47
2022/09/10 09:57:49;;;;;;;0.75;0.60;;;;;;;22.47;50.61;100999.22;5033252;28;20030;-45
2022/09/10 10:00:34;;;;;;;0.70;0.50;;;;;;;22.49;50.38;101002.59;5015972;28;20026;-49
2022/09/10 10:03:12;;;;;;;0.93;0.60;;;;;;;22.49;50.77;101004.47;5033882;28;20028;-47
2022/09/10 10:05:38;;;;;;;0.70;0.70;;;;;;;22.46;50.62;101005.69;5028803;28;20029;-49
2022/09/10 10:08:04;;;;;;;0.70;0.60;;;;;;;22.44;50.73;100988.78;5048045;28;20354;-46
2022/09/10 10:10:30;;;;;;;0.82;0.50;;;;;;;22.42;50.42;100990.81;5035771;28;20043;-51
2022/09/10 10:12:55;;;;;;;0.50;0.50;;;;;;;22.45;50.57;101002.13;5038161;28;20033;-47
2022/09/10 10:15:41;;;;;;;0.43;0.43;;;;;;;22.42;50.67;100998.97;5055296;28;20102;-47
2022/09/10 10:18:21;;;;;;;0.60;0.60;;;;;;;22.46;50.40;101005.69;5064247;28;20021;-49
2022/09/10 10:21:09;;;;;;;0.40;0.40;;;;;;;22.45;50.46;101002.13;5045615;28;20032;-50
2022/09/10 10:23:36;;;;;;;0.60;0.60;;;;;;;22.44;50.84;101005.88;5045920;28;20112;-47
2022/09/10 10:26:20;;;;;;;0.93;0.70;;;;;;;22.46;50.79;101006.50;5045743;28;20026;-44
2022/09/10 10:28:50;;;;;;;0.85;0.60;;;;;;;22.48;50.59;101005.50;5032119;28;20506;-51
2022/09/10 10:31:16;;;;;;;0.63;0.50;;;;;;;22.49;50.73;101007.19;5015809;28;20045;-47
2022/09/10 10:33:57;;;;;;;0.50;0.50;;;;;;;22.50;50.61;101004.25;5021832;28;20025;-46
2022/09/10 10:36:31;;;;;;;0.65;0.57;;;;;;;22.52;50.77;101007.66;5020126;28;20108;-47
2022/09/10 10:39:06;;;;;;;0.70;0.60;;;;;;;22.56;50.45;101011.66;5027475;28;20028;-50
2022/09/10 10:41:41;;;;;;;1.27;0.75;;;;;;;22.59;50.36;101008.53;5015902;28;20383;-48
2022/09/10 10:44:06;;;;;;;0.40;0.40;;;;;;;22.60;50.61;101012.97;5045480;28;20112;-46
2022/09/10 10:47:00;;;;;;;0.40;0.40;;;;;;;22.62;50.50;101015.47;5045483;28;20033;-48
2022/09/10 10:49:36;;;;;;;0.40;0.40;;;;;;;22.59;50.55;101005.00;5033013;28;20024;-46
2022/09/10 10:52:14;;;;;;;0.75;0.60;;;;;;;22.64;50.49;101019.69;5031801;28;20033;-49
2022/09/10 10:54:50;;;;;;;0.40;0.40;;;;;;;22.63;50.50;101014.41;5019069;28;20026;-47
2022/09/10 10:57:46;;;;;;;0.80;0.60;;;;;;;22.63;50.52;101017.97;5024160;28;20078;-49
2022/09/10 11:00:14;;;;;;;0.40;0.40;;;;;;;22.65;50.82;101017.81;5045676;28;20064;-46
2022/09/10 11:02:59;;;;;;;0.47;0.40;;;;;;;22.64;50.70;101019.69;5013529;28;20021;-45
2022/09/10 11:05:31;;;;;;;0.47;0.47;;;;;;;22.64;50.84;101014.25;5014003;28;20021;-49
2022/09/10 11:08:22;;;;;;;0.50;0.50;;;;;;;22.62;50.59;101016.28;5031761;28;20092;-49
2022/09/10 11:11:07;;;;;;;0.50;0.40;;;;;;;22.66;50.44;101020.31;5027787;28;20142;-49
2022/09/10 11:13:41;;;;;;;0.40;0.40;;;;;;;22.68;50.71;101022.81;5045173;28;20029;-48
2022/09/10 11:16:40;;;;;;;0.80;0.70;;;;;;;22.70;50.60;101023.47;5027730;28;20045;-46
2022/09/10 11:19:20;;;;;;;0.70;0.55;;;;;;;22.72;50.62;101024.13;4970763;28;20038;-45
2022/09/10 11:21:50;;;;;;;0.38;0.30;;;;;;;22.73;50.44;101025.81;5045054;28;20052;-47
2022/09/10 11:24:25;;;;;;;0.88;0.50;;;;;;;22.76;50.70;101025.41;5047043;28;20107;-47
2022/09/10 11:26:59;;;;;;;0.50;0.45;;;;;;;22.76;50.47;101022.69;5046909;28;20090;-46
2022/09/10 11:29:42;;;;;;;0.85;0.50;;;;;;;22.77;50.44;101032.53;5027464;28;20028;-49
2022/09/10 11:32:07;;;;;;;0.70;0.50;;;;;;;22.75;50.48;101034.59;5040423;28;20021;-53
2022/09/10 11:34:34;;;;;;;1.13;0.80;;;;;;;22.76;50.41;101038.13;5055118;28;20033;-52